Time;durP1;ratioP1;P1;durP2;ratioP2;P2;SDS_P1;SDS_P2;PMS_P1;PMS_P2;Temp;Humidity;BMP_temperature;BMP_pressure;BME280_temperature;BME280_humidity;BME280_pressure;Samples;Min_cycle;Max_cycle;Signal;HPM_P1;HPM_P2
2023/12/03 00:00:31;;;;;;;4.72;2.53;;;;;;;;;;10474332;28;20040;-66
2023/12/03 00:05:32;;;;;;;4.18;2.00;;;;;;;;;;10472084;28;20037;-66
2023/12/03 00:10:32;;;;;;;5.53;2.22;;;;;;;;;;10488281;28;20479;-66
2023/12/03 00:15:33;;;;;;;4.32;2.35;;;;;;;;;;10469353;28;20086;-66
2023/12/03 00:20:34;;;;;;;2.50;2.15;;;;;;;;;;10490991;28;20036;-66
2023/12/03 00:25:34;;;;;;;8.68;2.40;;;;;;;;;;10492788;28;20525;-66
2023/12/03 00:30:35;;;;;;;2.95;2.20;;;;;;;;;;10491097;28;20612;-66
2023/12/03 00:35:35;;;;;;;3.58;2.15;;;;;;;;;;10492403;28;20434;-66
2023/12/03 00:40:37;;;;;;;2.13;1.92;;;;;;;;;;10492748;28;20418;-66
2023/12/03 00:45:37;;;;;;;4.72;2.70;;;;;;;;;;10491591;28;20130;-66
2023/12/03 00:50:38;;;;;;;4.68;2.40;;;;;;;;;;10497028;28;20056;-66
2023/12/03 00:55:39;;;;;;;6.00;2.50;;;;;;;;;;10485944;28;20044;-64
2023/12/03 01:00:39;;;;;;;7.43;2.33;;;;;;;;;;10481863;28;20044;-64
2023/12/03 01:05:40;;;;;;;7.40;2.90;;;;;;;;;;10488503;28;20036;-68
2023/12/03 01:10:41;;;;;;;8.52;2.38;;;;;;;;;;10486416;28;20037;-70
2023/12/03 01:15:44;;;;;;;5.60;2.38;;;;;;;;;;10490122;28;20028;-68
2023/12/03 01:20:45;;;;;;;3.90;2.50;;;;;;;;;;10488147;28;20033;-67
2023/12/03 01:25:45;;;;;;;2.78;2.30;;;;;;;;;;10487322;28;20037;-67
2023/12/03 01:30:46;;;;;;;4.53;2.40;;;;;;;;;;10490061;28;20028;-67
2023/12/03 01:35:46;;;;;;;5.22;2.03;;;;;;;;;;10478330;28;20040;-65
2023/12/03 01:40:53;;;;;;;3.90;2.33;;;;;;;;;;10489610;28;20096;-65
2023/12/03 01:45:54;;;;;;;7.03;2.60;;;;;;;;;;10477454;28;20068;-67
2023/12/03 01:50:56;;;;;;;4.20;2.20;;;;;;;;;;10485363;28;20044;-69
2023/12/03 01:55:58;;;;;;;2.58;2.10;;;;;;;;;;10469346;28;20463;-68
2023/12/03 02:00:59;;;;;;;5.38;1.98;;;;;;;;;;10481288;28;20051;-66
2023/12/03 02:06:07;;;;;;;4.13;2.20;;;;;;;;;;10463256;28;20020;-66
2023/12/03 02:11:08;;;;;;;2.40;2.05;;;;;;;;;;10480391;28;20028;-67
2023/12/03 02:16:09;;;;;;;7.85;2.40;;;;;;;;;;10476853;28;20083;-66
2023/12/03 02:21:10;;;;;;;2.63;2.15;;;;;;;;;;10488013;28;20288;-66
2023/12/03 02:26:10;;;;;;;3.83;2.13;;;;;;;;;;10488393;28;20048;-66
2023/12/03 02:31:11;;;;;;;2.42;2.08;;;;;;;;;;10488785;28;20383;-65
2023/12/03 02:36:11;;;;;;;2.00;1.80;;;;;;;;;;10487120;28;20387;-69
2023/12/03 02:41:12;;;;;;;4.00;2.17;;;;;;;;;;10490475;28;20264;-65
2023/12/03 02:46:12;;;;;;;3.65;2.17;;;;;;;;;;10487106;28;20122;-66
2023/12/03 02:51:13;;;;;;;2.85;2.22;;;;;;;;;;10482532;28;20041;-66
2023/12/03 02:56:14;;;;;;;3.15;2.33;;;;;;;;;;10485957;28;20132;-66
2023/12/03 03:01:14;;;;;;;2.03;1.83;;;;;;;;;;10486621;28;20073;-66
2023/12/03 03:06:15;;;;;;;3.35;2.40;;;;;;;;;;10485048;28;20025;-66
2023/12/03 03:11:15;;;;;;;2.45;1.95;;;;;;;;;;10486396;28;20426;-66
2023/12/03 03:16:16;;;;;;;8.98;1.83;;;;;;;;;;10486238;28;20357;-67
2023/12/03 03:21:17;;;;;;;4.10;1.88;;;;;;;;;;10486547;28;20434;-66
2023/12/03 03:26:17;;;;;;;6.03;2.10;;;;;;;;;;10482169;28;20043;-66
2023/12/03 03:31:18;;;;;;;4.72;2.15;;;;;;;;;;10486650;28;20036;-66
2023/12/03 03:36:18;;;;;;;2.10;1.90;;;;;;;;;;10483923;28;20098;-66
2023/12/03 03:41:19;;;;;;;6.03;1.92;;;;;;;;;;10466711;28;20024;-66
2023/12/03 03:46:20;;;;;;;7.78;2.20;;;;;;;;;;10486901;28;20021;-66
2023/12/03 03:51:20;;;;;;;2.35;1.70;;;;;;;;;;10492444;28;20060;-66
2023/12/03 03:56:22;;;;;;;2.95;1.55;;;;;;;;;;10492808;28;20055;-66
2023/12/03 04:01:23;;;;;;;1.58;1.40;;;;;;;;;;10486664;28;20025;-66
2023/12/03 04:06:24;;;;;;;3.72;1.83;;;;;;;;;;10492385;28;20037;-71
2023/12/03 04:11:24;;;;;;;19.95;2.05;;;;;;;;;;10490304;28;20028;-70
2023/12/03 04:16:25;;;;;;;6.00;2.33;;;;;;;;;;10489579;28;20031;-70
2023/12/03 04:21:26;;;;;;;2.47;1.65;;;;;;;;;;10491882;28;20032;-71
2023/12/03 04:26:26;;;;;;;1.58;1.48;;;;;;;;;;10489892;28;20040;-72
2023/12/03 04:31:27;;;;;;;2.05;1.60;;;;;;;;;;10478378;28;20025;-71
2023/12/03 04:36:27;;;;;;;1.65;1.52;;;;;;;;;;10491496;28;20271;-71
2023/12/03 04:41:35;;;;;;;2.53;1.60;;;;;;;;;;10491761;28;20032;-71
2023/12/03 04:46:41;;;;;;;2.00;1.55;;;;;;;;;;10492624;28;20032;-72
2023/12/03 04:51:42;;;;;;;1.75;1.52;;;;;;;;;;10492005;28;20047;-71
2023/12/03 04:56:43;;;;;;;1.73;1.63;;;;;;;;;;10491784;28;20029;-71
2023/12/03 05:01:45;;;;;;;3.85;1.58;;;;;;;;;;10492160;28;20123;-71
2023/12/03 05:06:45;;;;;;;1.77;1.42;;;;;;;;;;10490684;28;20032;-70
2023/12/03 05:11:46;;;;;;;2.55;1.83;;;;;;;;;;10491715;28;20549;-70
2023/12/03 05:16:46;;;;;;;2.42;1.92;;;;;;;;;;10489143;28;20028;-70
2023/12/03 05:21:47;;;;;;;2.28;1.90;;;;;;;;;;10490833;28;20036;-65
2023/12/03 05:26:47;;;;;;;2.92;1.65;;;;;;;;;;10491637;28;20032;-67
2023/12/03 05:31:48;;;;;;;1.58;1.42;;;;;;;;;;10490401;28;20380;-66
2023/12/03 05:36:48;;;;;;;1.88;1.55;;;;;;;;;;10489991;28;20357;-67
2023/12/03 05:41:49;;;;;;;2.47;1.92;;;;;;;;;;10489936;28;20036;-67
2023/12/03 05:46:50;;;;;;;1.95;1.30;;;;;;;;;;10490468;28;20032;-67
2023/12/03 05:51:50;;;;;;;1.58;1.48;;;;;;;;;;10484543;28;20045;-67
2023/12/03 05:56:51;;;;;;;1.90;1.50;;;;;;;;;;10489904;28;20032;-66
2023/12/03 06:01:52;;;;;;;1.77;1.27;;;;;;;;;;10489505;28;20082;-67
2023/12/03 06:06:52;;;;;;;1.50;1.40;;;;;;;;;;10488981;28;20036;-66
2023/12/03 06:11:53;;;;;;;1.83;1.63;;;;;;;;;;10488739;28;20032;-67
2023/12/03 06:16:54;;;;;;;2.70;1.48;;;;;;;;;;10486293;28;20036;-66
2023/12/03 06:21:54;;;;;;;1.83;1.35;;;;;;;;;;10483655;28;20032;-67
2023/12/03 06:26:55;;;;;;;1.73;1.55;;;;;;;;;;10488771;28;20035;-67
2023/12/03 06:31:56;;;;;;;1.42;1.20;;;;;;;;;;10486451;28;20032;-67
2023/12/03 06:36:58;;;;;;;1.55;1.40;;;;;;;;;;10486823;28;20027;-67
2023/12/03 06:41:59;;;;;;;1.58;1.30;;;;;;;;;;10488974;28;20119;-68
2023/12/03 06:46:59;;;;;;;2.95;1.30;;;;;;;;;;10487230;28;20036;-69
2023/12/03 06:52:00;;;;;;;1.70;1.60;;;;;;;;;;10487832;28;20039;-67
2023/12/03 06:57:00;;;;;;;1.52;1.38;;;;;;;;;;10487767;28;20020;-67
2023/12/03 07:02:01;;;;;;;1.38;1.27;;;;;;;;;;10487060;28;20020;-67
2023/12/03 07:07:02;;;;;;;2.03;1.23;;;;;;;;;;10487889;28;20029;-67
2023/12/03 07:12:02;;;;;;;1.27;1.20;;;;;;;;;;10486529;28;20460;-66
2023/12/03 07:17:03;;;;;;;1.48;1.33;;;;;;;;;;10486391;28;20036;-67
2023/12/03 07:22:04;;;;;;;1.33;1.23;;;;;;;;;;10492099;28;20036;-66
2023/12/03 07:27:05;;;;;;;1.50;1.40;;;;;;;;;;10495955;28;20041;-66
2023/12/03 07:32:06;;;;;;;6.93;1.38;;;;;;;;;;10494877;28;20522;-66
2023/12/03 07:37:06;;;;;;;1.45;1.35;;;;;;;;;;10494952;28;20124;-65
2023/12/03 07:42:07;;;;;;;2.10;1.50;;;;;;;;;;10495047;28;20050;-66
2023/12/03 07:47:07;;;;;;;1.85;1.50;;;;;;;;;;10494878;28;20037;-66
2023/12/03 07:52:08;;;;;;;1.83;1.27;;;;;;;;;;10483241;28;20043;-65
2023/12/03 07:57:09;;;;;;;1.30;1.20;;;;;;;;;;10494900;28;20375;-65
2023/12/03 08:02:09;;;;;;;2.78;1.25;;;;;;;;;;10500362;28;20020;-68
2023/12/03 08:07:10;;;;;;;1.67;1.40;;;;;;;;;;10496746;28;20036;-69
2023/12/03 08:12:11;;;;;;;4.00;1.35;;;;;;;;;;10493603;28;20049;-66
2023/12/03 08:17:12;;;;;;;1.75;1.40;;;;;;;;;;10491079;28;20376;-66
2023/12/03 08:22:13;;;;;;;2.40;1.60;;;;;;;;;;10491418;28;20025;-67
2023/12/03 08:27:13;;;;;;;1.55;1.17;;;;;;;;;;10490187;28;20033;-67
2023/12/03 08:32:14;;;;;;;1.45;1.35;;;;;;;;;;10489906;28;20032;-67
2023/12/03 08:37:15;;;;;;;1.55;1.30;;;;;;;;;;10502381;28;20063;-67
2023/12/03 08:42:16;;;;;;;1.48;1.38;;;;;;;;;;10495388;28;20361;-67
2023/12/03 08:47:17;;;;;;;1.10;1.10;;;;;;;;;;10491294;28;20093;-67
2023/12/03 08:52:18;;;;;;;1.27;1.20;;;;;;;;;;10478196;28;20520;-67
2023/12/03 08:57:18;;;;;;;1.55;1.45;;;;;;;;;;10492187;28;20025;-67
2023/12/03 09:02:22;;;;;;;1.30;1.20;;;;;;;;;;10489929;28;20027;-67
2023/12/03 09:07:24;;;;;;;7.20;1.60;;;;;;;;;;10481330;28;20052;-66
2023/12/03 09:12:24;;;;;;;2.05;1.45;;;;;;;;;;10471037;28;20488;-67
2023/12/03 09:17:26;;;;;;;2.33;1.50;;;;;;;;;;10497240;28;20036;-73
2023/12/03 09:22:27;;;;;;;2.70;1.17;;;;;;;;;;10490516;28;20184;-68
2023/12/03 09:27:27;;;;;;;3.05;1.20;;;;;;;;;;10490734;28;20246;-68
2023/12/03 09:32:28;;;;;;;1.02;0.93;;;;;;;;;;10490636;28;20033;-68
2023/12/03 09:37:28;;;;;;;2.08;1.40;;;;;;;;;;10497642;28;20090;-71
2023/12/03 09:42:31;;;;;;;7.93;1.30;;;;;;;;;;10488454;28;20032;-71
2023/12/03 09:47:37;;;;;;;0.93;0.93;;;;;;;;;;10494514;28;20046;-70
2023/12/03 09:52:42;;;;;;;1.33;1.10;;;;;;;;;;10489214;28;20048;-66
2023/12/03 09:57:44;;;;;;;1.30;1.20;;;;;;;;;;10472794;28;20063;-66
2023/12/03 10:02:49;;;;;;;1.15;1.08;;;;;;;;;;10469935;28;20078;-72
2023/12/03 10:07:50;;;;;;;1.90;1.15;;;;;;;;;;10490723;28;20068;-73
2023/12/03 10:12:54;;;;;;;2.97;1.20;;;;;;;;;;10487787;28;20368;-73
2023/12/03 10:17:55;;;;;;;2.30;1.30;;;;;;;;;;10496000;28;20126;-73
2023/12/03 10:22:58;;;;;;;1.50;1.17;;;;;;;;;;10488879;28;20082;-72
2023/12/03 10:28:04;;;;;;;2.17;1.40;;;;;;;;;;10488412;28;20021;-72
2023/12/03 10:33:05;;;;;;;2.97;1.30;;;;;;;;;;10488223;28;20036;-72
2023/12/03 10:38:09;;;;;;;4.05;1.30;;;;;;;;;;10486609;28;20025;-67
2023/12/03 10:43:11;;;;;;;4.75;1.48;;;;;;;;;;10486272;28;20063;-66
2023/12/03 10:48:12;;;;;;;1.23;1.02;;;;;;;;;;10487712;28;20077;-65
2023/12/03 10:53:15;;;;;;;1.15;1.10;;;;;;;;;;10488078;28;20044;-69
2023/12/03 10:58:19;;;;;;;1.27;1.20;;;;;;;;;;10468031;28;20487;-66
2023/12/03 11:03:49;;;;;;;1.40;1.30;;;;;;;;;;10482857;28;20028;-66
2023/12/03 11:08:52;;;;;;;1.85;1.10;;;;;;;;;;10470920;28;20029;-68
2023/12/03 11:13:56;;;;;;;5.68;1.65;;;;;;;;;;10489837;28;20052;-66
2023/12/03 11:19:10;;;;;;;2.50;1.40;;;;;;;;;;10483945;28;20041;-65
2023/12/03 11:24:26;;;;;;;2.67;1.70;;;;;;;;;;10485478;28;20031;-66
2023/12/03 11:29:51;;;;;;;3.25;2.15;;;;;;;;;;10485448;28;20387;-67
2023/12/03 11:34:58;;;;;;;2.35;2.03;;;;;;;;;;10483239;28;20028;-63
2023/12/03 11:40:11;;;;;;;5.72;2.20;;;;;;;;;;10486677;28;20115;-63
2023/12/03 11:45:25;;;;;;;4.65;1.90;;;;;;;;;;10484415;28;20041;-63
2023/12/03 11:50:26;;;;;;;2.08;1.40;;;;;;;;;;10469497;22;20061;-53
2023/12/03 11:55:31;;;;;;;9.13;1.73;;;;;;;;;;10360887;28;20034;-54
2023/12/03 12:00:33;;;;;;;2.63;1.60;;;;;;;;;;10360245;28;20440;-58
2023/12/03 12:05:43;;;;;;;5.15;1.50;;;;;;;;;;10357092;28;20033;-56
2023/12/03 12:10:44;;;;;;;11.43;1.80;;;;;;;;;;10356263;28;20525;-56
2023/12/03 12:15:45;;;;;;;2.15;1.50;;;;;;;;;;10366237;28;20037;-57
2023/12/03 12:20:46;;;;;;;2.38;1.55;;;;;;;;;;10367895;28;20162;-57
2023/12/03 12:25:46;;;;;;;1.70;1.60;;;;;;;;;;10366727;28;20038;-57
2023/12/03 12:30:47;;;;;;;5.38;1.88;;;;;;;;;;10352292;28;20034;-56
2023/12/03 12:35:51;;;;;;;2.83;1.65;;;;;;;;;;10368169;28;20026;-55
2023/12/03 12:40:55;;;;;;;3.15;1.55;;;;;;;;;;10366603;28;20030;-58
2023/12/03 12:46:07;;;;;;;2.92;1.67;;;;;;;;;;10364301;28;20269;-60
2023/12/03 12:51:18;;;;;;;2.10;1.60;;;;;;;;;;10368139;28;20057;-61
2023/12/03 12:56:18;;;;;;;3.60;1.67;;;;;;;;;;10367921;28;20030;-61
2023/12/03 13:01:19;;;;;;;3.03;1.60;;;;;;;;;;10359691;28;20084;-59
2023/12/03 13:06:22;;;;;;;1.95;1.52;;;;;;;;;;10366831;28;20026;-59
2023/12/03 13:11:23;;;;;;;2.80;1.65;;;;;;;;;;10366688;28;20030;-58
2023/12/03 13:16:24;;;;;;;3.88;1.67;;;;;;;;;;10361986;28;20030;-59
2023/12/03 13:21:25;;;;;;;4.47;1.65;;;;;;;;;;10364362;28;20044;-59
2023/12/03 13:26:25;;;;;;;1.70;1.48;;;;;;;;;;10364706;28;20022;-59
2023/12/03 13:31:26;;;;;;;3.65;1.83;;;;;;;;;;10364012;28;20033;-56
2023/12/03 13:36:27;;;;;;;2.10;1.48;;;;;;;;;;10360538;28;20037;-57
2023/12/03 13:41:30;;;;;;;3.13;1.52;;;;;;;;;;10354673;28;20038;-57
2023/12/03 13:46:31;;;;;;;1.95;1.45;;;;;;;;;;10366027;28;20022;-57
2023/12/03 13:51:31;;;;;;;8.52;2.20;;;;;;;;;;10365265;28;20053;-57
2023/12/03 13:56:32;;;;;;;2.60;1.80;;;;;;;;;;10364717;28;20112;-59
2023/12/03 14:01:33;;;;;;;2.78;1.52;;;;;;;;;;10363622;28;20037;-59
2023/12/03 14:06:34;;;;;;;2.67;1.70;;;;;;;;;;10361659;28;20398;-59
2023/12/03 14:11:34;;;;;;;2.20;1.50;;;;;;;;;;10360962;28;20026;-59
2023/12/03 14:16:35;;;;;;;1.77;1.40;;;;;;;;;;10364771;28;20034;-59
2023/12/03 14:21:36;;;;;;;1.50;1.40;;;;;;;;;;10364696;28;20022;-59
2023/12/03 14:26:36;;;;;;;2.15;1.67;;;;;;;;;;10358099;28;20057;-58
2023/12/03 14:31:37;;;;;;;24.17;2.00;;;;;;;;;;10360454;28;20574;-56
2023/12/03 14:36:42;;;;;;;5.00;1.75;;;;;;;;;;10358565;28;20026;-59
2023/12/03 14:41:43;;;;;;;5.18;1.52;;;;;;;;;;10341491;28;20193;-57
2023/12/03 14:46:44;;;;;;;2.05;1.50;;;;;;;;;;10358012;28;20140;-56
2023/12/03 14:51:44;;;;;;;5.82;1.73;;;;;;;;;;10357925;28;20050;-57
2023/12/03 14:56:46;;;;;;;5.05;1.90;;;;;;;;;;10363808;28;20042;-56
2023/12/03 15:01:47;;;;;;;4.45;1.63;;;;;;;;;;10364728;28;20037;-56
2023/12/03 15:06:47;;;;;;;2.90;1.52;;;;;;;;;;10363698;28;20030;-56
2023/12/03 15:11:48;;;;;;;2.95;1.70;;;;;;;;;;10364006;28;20106;-56
2023/12/03 15:16:49;;;;;;;2.92;1.60;;;;;;;;;;10362796;28;20040;-56
2023/12/03 15:21:49;;;;;;;3.22;1.80;;;;;;;;;;10363736;28;20030;-56
2023/12/03 15:26:50;;;;;;;1.45;1.35;;;;;;;;;;10358823;28;20536;-58
2023/12/03 15:31:51;;;;;;;2.00;1.40;;;;;;;;;;10359720;28;20029;-58
2023/12/03 15:36:51;;;;;;;1.73;1.63;;;;;;;;;;10364132;28;20653;-58
2023/12/03 15:41:53;;;;;;;1.90;1.40;;;;;;;;;;10353778;28;20034;-58
2023/12/03 15:46:53;;;;;;;1.67;1.40;;;;;;;;;;10360635;28;20042;-58
2023/12/03 15:51:54;;;;;;;3.45;2.13;;;;;;;;;;10363593;28;20047;-56
2023/12/03 15:56:55;;;;;;;8.07;1.60;;;;;;;;;;10360328;28;20034;-56
2023/12/03 16:01:56;;;;;;;4.50;1.50;;;;;;;;;;10370918;28;20088;-58
2023/12/03 16:06:57;;;;;;;2.13;1.20;;;;;;;;;;10362909;28;20038;-56
2023/12/03 16:11:57;;;;;;;2.95;1.50;;;;;;;;;;10356594;28;20420;-57
2023/12/03 16:16:58;;;;;;;3.53;1.55;;;;;;;;;;10355823;28;20033;-58
2023/12/03 16:21:59;;;;;;;18.38;2.80;;;;;;;;;;10355664;28;20042;-58
2023/12/03 16:26:59;;;;;;;12.23;2.35;;;;;;;;;;10355534;28;20077;-61
2023/12/03 16:32:01;;;;;;;5.65;2.17;;;;;;;;;;10351806;28;20028;-59
2023/12/03 16:37:01;;;;;;;5.68;2.00;;;;;;;;;;10354496;28;20080;-56
2023/12/03 16:42:02;;;;;;;8.70;2.35;;;;;;;;;;10339137;28;20068;-56
2023/12/03 16:47:03;;;;;;;4.07;2.17;;;;;;;;;;10356542;28;20349;-57
2023/12/03 16:52:04;;;;;;;4.90;2.17;;;;;;;;;;10361927;28;20046;-56
2023/12/03 16:57:09;;;;;;;3.45;1.83;;;;;;;;;;10367041;28;20474;-59
2023/12/03 17:02:10;;;;;;;10.43;1.95;;;;;;;;;;10334112;28;20026;-58
2023/12/03 17:07:11;;;;;;;9.27;2.60;;;;;;;;;;10338109;28;20049;-57
2023/12/03 17:12:11;;;;;;;16.50;3.03;;;;;;;;;;10338242;28;20145;-56
2023/12/03 17:17:12;;;;;;;11.07;2.30;;;;;;;;;;10332007;28;20038;-58
2023/12/03 17:22:12;;;;;;;7.75;2.17;;;;;;;;;;10318660;28;20030;-57
2023/12/03 17:27:13;;;;;;;8.63;2.90;;;;;;;;;;10336539;28;20038;-55
2023/12/03 17:32:14;;;;;;;16.80;3.60;;;;;;;;;;10332367;28;20343;-59
2023/12/03 17:37:15;;;;;;;18.80;3.88;;;;;;;;;;10319838;28;20029;-59
2023/12/03 17:42:16;;;;;;;18.08;3.97;;;;;;;;;;10337060;28;20029;-59
2023/12/03 17:47:16;;;;;;;8.93;3.17;;;;;;;;;;10350417;28;20038;-59
2023/12/03 17:52:17;;;;;;;9.70;3.33;;;;;;;;;;10346016;28;20581;-59
2023/12/03 17:57:17;;;;;;;9.98;3.50;;;;;;;;;;10357667;28;20030;-58
2023/12/03 18:02:20;;;;;;;11.55;3.80;;;;;;;;;;10362835;28;20488;-59
2023/12/03 18:07:21;;;;;;;12.27;3.42;;;;;;;;;;10360786;28;20110;-58
2023/12/03 18:12:22;;;;;;;7.38;3.58;;;;;;;;;;10354950;28;20037;-59
2023/12/03 18:17:25;;;;;;;26.60;3.88;;;;;;;;;;10364701;28;20030;-59
2023/12/03 18:22:25;;;;;;;9.25;3.10;;;;;;;;;;10358955;28;20038;-59
2023/12/03 18:27:26;;;;;;;10.88;3.28;;;;;;;;;;10358428;28;20482;-59
2023/12/03 18:32:28;;;;;;;5.15;3.30;;;;;;;;;;10358374;28;20030;-58
2023/12/03 18:37:28;;;;;;;5.68;3.22;;;;;;;;;;10364722;28;20041;-58
2023/12/03 18:42:29;;;;;;;5.97;3.25;;;;;;;;;;10363457;28;20033;-58
2023/12/03 18:47:30;;;;;;;10.18;3.75;;;;;;;;;;10365923;28;20080;-58
2023/12/03 18:52:31;;;;;;;9.32;3.38;;;;;;;;;;10364936;28;20124;-56
2023/12/03 18:57:31;;;;;;;7.10;3.40;;;;;;;;;;10364779;28;20030;-59
2023/12/03 19:02:35;;;;;;;8.52;3.00;;;;;;;;;;10364477;28;20029;-58
2023/12/03 19:07:37;;;;;;;10.15;3.50;;;;;;;;;;10364512;28;20042;-58
2023/12/03 19:12:38;;;;;;;6.78;3.33;;;;;;;;;;10363531;28;20049;-57
2023/12/03 19:17:39;;;;;;;7.88;3.90;;;;;;;;;;10369609;28;20030;-57
2023/12/03 19:22:40;;;;;;;10.63;4.60;;;;;;;;;;10372051;28;20021;-57
2023/12/03 19:27:40;;;;;;;5.25;3.88;;;;;;;;;;10371917;28;20030;-57
2023/12/03 19:32:41;;;;;;;6.38;4.28;;;;;;;;;;10372366;28;20062;-57
2023/12/03 19:37:41;;;;;;;6.97;4.78;;;;;;;;;;10369789;28;20030;-61
2023/12/03 19:42:42;;;;;;;6.95;4.20;;;;;;;;;;10371856;28;20045;-56
2023/12/03 19:47:43;;;;;;;7.80;4.55;;;;;;;;;;10372010;28;20092;-58
2023/12/03 19:52:43;;;;;;;9.15;5.00;;;;;;;;;;10371643;28;20054;-57
2023/12/03 19:57:44;;;;;;;6.30;4.63;;;;;;;;;;10370413;28;20073;-56
2023/12/03 20:02:44;;;;;;;7.80;4.43;;;;;;;;;;10370379;28;20034;-59
2023/12/03 20:07:45;;;;;;;5.47;4.22;;;;;;;;;;10370646;28;20032;-56
2023/12/03 20:12:45;;;;;;;8.43;4.55;;;;;;;;;;10369445;28;20030;-54
2023/12/03 20:17:46;;;;;;;9.05;5.00;;;;;;;;;;10370191;28;20389;-55
2023/12/03 20:22:47;;;;;;;8.25;5.25;;;;;;;;;;10369398;28;20389;-56
2023/12/03 20:27:48;;;;;;;7.90;4.45;;;;;;;;;;10368242;28;20034;-55
2023/12/03 20:32:50;;;;;;;6.97;4.95;;;;;;;;;;10369004;28;20029;-54
2023/12/03 20:37:50;;;;;;;6.60;4.15;;;;;;;;;;10369352;28;20092;-54
2023/12/03 20:42:51;;;;;;;8.40;4.60;;;;;;;;;;10368826;28;20096;-54
2023/12/03 20:47:51;;;;;;;6.85;4.95;;;;;;;;;;10368273;28;20038;-56
2023/12/03 20:52:52;;;;;;;6.40;4.32;;;;;;;;;;10368714;28;20038;-56
2023/12/03 20:57:53;;;;;;;11.43;5.00;;;;;;;;;;10367952;28;20405;-55
2023/12/03 21:02:53;;;;;;;6.13;4.72;;;;;;;;;;10368530;28;20022;-56
2023/12/03 21:07:54;;;;;;;9.50;4.60;;;;;;;;;;10366930;28;20037;-55
2023/12/03 21:12:54;;;;;;;6.45;4.60;;;;;;;;;;10367682;28;20029;-60
2023/12/03 21:17:56;;;;;;;5.85;4.65;;;;;;;;;;10367849;28;20033;-54
2023/12/03 21:22:56;;;;;;;7.18;4.82;;;;;;;;;;10367956;28;20052;-54
2023/12/03 21:27:58;;;;;;;8.05;5.03;;;;;;;;;;10366887;28;20025;-56
2023/12/03 21:32:59;;;;;;;6.13;4.30;;;;;;;;;;10365992;28;20382;-55
2023/12/03 21:38:05;;;;;;;5.65;4.50;;;;;;;;;;10367000;28;20026;-56
2023/12/03 21:43:06;;;;;;;9.05;4.88;;;;;;;;;;10366316;28;20025;-54
2023/12/03 21:48:07;;;;;;;6.22;4.45;;;;;;;;;;10366503;28;20049;-54
2023/12/03 21:53:07;;;;;;;5.35;4.13;;;;;;;;;;10366190;28;20360;-56
2023/12/03 21:58:08;;;;;;;8.93;4.85;;;;;;;;;;10366295;28;20033;-56
2023/12/03 22:03:08;;;;;;;5.50;4.53;;;;;;;;;;10362117;28;20033;-55
2023/12/03 22:08:09;;;;;;;8.32;4.95;;;;;;;;;;10340633;28;20037;-56
2023/12/03 22:13:09;;;;;;;5.32;4.55;;;;;;;;;;10332873;28;20416;-53
2023/12/03 22:18:11;;;;;;;9.50;4.65;;;;;;;;;;10332345;28;20041;-55
2023/12/03 22:23:12;;;;;;;7.90;4.85;;;;;;;;;;10349669;28;20030;-56
2023/12/03 22:28:12;;;;;;;8.77;4.47;;;;;;;;;;10360662;28;20030;-56
2023/12/03 22:33:13;;;;;;;9.55;4.75;;;;;;;;;;10351384;28;20030;-56
2023/12/03 22:38:14;;;;;;;7.60;4.78;;;;;;;;;;10358255;28;20485;-55
2023/12/03 22:43:14;;;;;;;11.55;4.38;;;;;;;;;;10359268;28;20017;-55
2023/12/03 22:48:15;;;;;;;6.65;4.22;;;;;;;;;;10354440;28;20034;-54
2023/12/03 22:53:16;;;;;;;7.50;4.57;;;;;;;;;;10353256;28;20445;-61
2023/12/03 22:58:16;;;;;;;5.38;4.07;;;;;;;;;;10364388;28;20453;-54
2023/12/03 23:03:17;;;;;;;13.57;4.88;;;;;;;;;;10364357;28;20374;-57
2023/12/03 23:08:17;;;;;;;5.13;4.10;;;;;;;;;;10364518;28;20152;-58
2023/12/03 23:13:18;;;;;;;6.47;4.22;;;;;;;;;;10364411;28;20033;-57
2023/12/03 23:18:18;;;;;;;5.97;4.13;;;;;;;;;;10364892;28;20026;-57
2023/12/03 23:23:19;;;;;;;4.97;4.13;;;;;;;;;;10364439;28;20394;-58
2023/12/03 23:28:20;;;;;;;6.25;4.40;;;;;;;;;;10363862;28;20105;-59
2023/12/03 23:33:20;;;;;;;5.50;4.05;;;;;;;;;;10364169;28;20026;-58
2023/12/03 23:38:21;;;;;;;7.18;4.20;;;;;;;;;;10364265;28;20026;-58
2023/12/03 23:43:22;;;;;;;4.90;3.83;;;;;;;;;;10364129;28;20500;-59
2023/12/03 23:48:22;;;;;;;7.07;4.10;;;;;;;;;;10363444;28;20028;-57
2023/12/03 23:53:23;;;;;;;6.10;3.70;;;;;;;;;;10363394;28;20108;-56
2023/12/03 23:58:23;;;;;;;5.88;3.75;;;;;;;;;;10364103;28;20484;-59
